Lowlands Kamsar — 3FCG2 — position and weather

sailwx.info

Track history (hours):
 
Tides and Currents Weather Stations Pressure Air Temp Water Temp Dewpoint Dewpoint Depression Visibility Wind Speed Wind Dir Waves Ship Positions

Lowlands Kamsar

Last reported at 2017-Nov-14 18:11 UTC. Time now 2017-Nov-18 03:05 UTC.
Position N 01°16' E 104°01'.

Length 229 m; draft 11.7 m.

Type: Cargo ship. MMSI: 351916000.

Date/timePositionNaut miles runAvg speedWind from/ knotsBaromVisibWave heightAir tempDewpointWater temp
2017-Nov-14 18:11N 01°16' E 104°01'2 9.2
2017-Nov-14 18:00N 01°16' E 103°60'1 2.1
2017-Nov-14 17:30N 01°17' E 103°59'0 0.0
2017-Nov-14 16:57N 01°17' E 103°59'0 0.0
2017-Nov-14 16:21N 01°17' E 103°59'0 0.1
2017-Nov-14 15:57N 01°17' E 103°59'0 0.0
2017-Nov-14 15:21N 01°17' E 103°59'0 0.3
2017-Nov-14 15:00N 01°17' E 103°59'0 0.0
2017-Nov-14 09:45N 01°17' E 103°59'0 0.0
2017-Nov-14 09:21N 01°17' E 103°59'0 0.1
2017-Nov-14 08:39N 01°17' E 103°59'0 0.4
2017-Nov-14 08:30N 01°17' E 103°59'0 0.1
2017-Nov-14 07:57N 01°17' E 103°59'0 0.1
2017-Nov-14 07:30N 01°17' E 103°59'0 0.0
2017-Nov-14 06:36N 01°17' E 103°59'0 0.0
2017-Nov-14 06:24N 01°17' E 103°59'0 0.1
2017-Nov-14 05:51N 01°17' E 103°59'0 0.1
2017-Nov-14 05:27N 01°17' E 103°59'0 0.1
2017-Nov-14 04:57N 01°17' E 103°59'0 0.3
2017-Nov-14 04:24N 01°17' E 103°59'0 0.3
2017-Nov-14 03:57N 01°17' E 103°59'0 0.1
2017-Nov-14 02:45N 01°17' E 103°59'0 0.1
2017-Nov-14 01:02N 01°17' E 103°59'0 3.9
2017-Nov-14 00:56N 01°17' E 103°59'3 6.3
2017-Nov-14 00:30N 01°15' E 103°57'1 2.7
2017-Nov-14 00:00N 01°14' E 103°57'3 5.9
2017-Nov-13 23:30N 01°13' E 103°54'3 5.9
2017-Nov-13 23:00N 01°11' E 103°51'3 6.0
2017-Nov-13 22:30N 01°10' E 103°48'3 6.1
2017-Nov-13 22:00N 01°08' E 103°46'  
Track history (hours):
 
Tides and Currents Weather Stations Pressure Air Temp Water Temp Dewpoint Dewpoint Depression Visibility Wind Speed Wind Dir Waves Ship Positions

Lowlands Kamsar

Last reported at 2017-Nov-14 18:11 UTC. Time now 2017-Nov-18 03:05 UTC.
Position N 01°16' E 104°01'.

Length 229 m; draft 11.7 m.

Type: Cargo ship. MMSI: 351916000.

Date/timePositionNaut miles runAvg speedWind from/ knotsBaromVisibWave heightAir tempDewpointWater temp
2017-Nov-14 18:11N 01°16' E 104°01'2 9.2
2017-Nov-14 18:00N 01°16' E 103°60'1 2.1
2017-Nov-14 17:30N 01°17' E 103°59'0 0.0
2017-Nov-14 16:57N 01°17' E 103°59'0 0.0
2017-Nov-14 16:21N 01°17' E 103°59'0 0.1
2017-Nov-14 15:57N 01°17' E 103°59'0 0.0
2017-Nov-14 15:21N 01°17' E 103°59'0 0.3
2017-Nov-14 15:00N 01°17' E 103°59'0 0.0
2017-Nov-14 09:45N 01°17' E 103°59'0 0.0
2017-Nov-14 09:21N 01°17' E 103°59'0 0.1
2017-Nov-14 08:39N 01°17' E 103°59'0 0.4
2017-Nov-14 08:30N 01°17' E 103°59'0 0.1
2017-Nov-14 07:57N 01°17' E 103°59'0 0.1
2017-Nov-14 07:30N 01°17' E 103°59'0 0.0
2017-Nov-14 06:36N 01°17' E 103°59'0 0.0
2017-Nov-14 06:24N 01°17' E 103°59'0 0.1
2017-Nov-14 05:51N 01°17' E 103°59'0 0.1
2017-Nov-14 05:27N 01°17' E 103°59'0 0.1
2017-Nov-14 04:57N 01°17' E 103°59'0 0.3
2017-Nov-14 04:24N 01°17' E 103°59'0 0.3
2017-Nov-14 03:57N 01°17' E 103°59'0 0.1
2017-Nov-14 02:45N 01°17' E 103°59'0 0.1
2017-Nov-14 01:02N 01°17' E 103°59'0 3.9
2017-Nov-14 00:56N 01°17' E 103°59'3 6.3
2017-Nov-14 00:30N 01°15' E 103°57'1 2.7
2017-Nov-14 00:00N 01°14' E 103°57'3 5.9
2017-Nov-13 23:30N 01°13' E 103°54'3 5.9
2017-Nov-13 23:00N 01°11' E 103°51'3 6.0
2017-Nov-13 22:30N 01°10' E 103°48'3 6.1
2017-Nov-13 22:00N 01°08' E 103°46'  

Dump ship's entire track history